sensor_id;sensor_type;location;lat;lon;timestamp;P1;durP1;ratioP1;P2;durP2;ratioP2
28910;SDS011;16028;42.642;23.310;2023-07-31T00:00:01;5.18;;;4.68;;
28910;SDS011;16028;42.642;23.310;2023-07-31T00:02:28;4.97;;;4.47;;
28910;SDS011;16028;42.642;23.310;2023-07-31T00:04:57;5.72;;;4.30;;
28910;SDS011;16028;42.642;23.310;2023-07-31T00:07:24;5.15;;;4.07;;
28910;SDS011;16028;42.642;23.310;2023-07-31T00:09:53;5.22;;;4.50;;
28910;SDS011;16028;42.642;23.310;2023-07-31T00:12:21;5.53;;;4.40;;
28910;SDS011;16028;42.642;23.310;2023-07-31T00:14:48;4.97;;;4.57;;
28910;SDS011;16028;42.642;23.310;2023-07-31T00:17:16;5.90;;;4.60;;
28910;SDS011;16028;42.642;23.310;2023-07-31T00:19:43;4.80;;;4.40;;
28910;SDS011;16028;42.642;23.310;2023-07-31T00:22:11;4.90;;;4.40;;
28910;SDS011;16028;42.642;23.310;2023-07-31T00:24:38;4.60;;;4.20;;
28910;SDS011;16028;42.642;23.310;2023-07-31T00:27:06;5.80;;;4.50;;
28910;SDS011;16028;42.642;23.310;2023-07-31T00:29:33;5.70;;;5.00;;
28910;SDS011;16028;42.642;23.310;2023-07-31T00:32:00;7.25;;;5.15;;
28910;SDS011;16028;42.642;23.310;2023-07-31T00:34:27;5.50;;;5.00;;
28910;SDS011;16028;42.642;23.310;2023-07-31T00:36:54;7.72;;;5.05;;
28910;SDS011;16028;42.642;23.310;2023-07-31T00:39:26;6.00;;;5.40;;
28910;SDS011;16028;42.642;23.310;2023-07-31T00:41:52;7.63;;;5.32;;
28910;SDS011;16028;42.642;23.310;2023-07-31T00:44:21;5.72;;;5.22;;
28910;SDS011;16028;42.642;23.310;2023-07-31T00:46:48;6.15;;;5.55;;
28910;SDS011;16028;42.642;23.310;2023-07-31T00:49:15;7.57;;;6.15;;
28910;SDS011;16028;42.642;23.310;2023-07-31T00:51:42;6.68;;;6.07;;
28910;SDS011;16028;42.642;23.310;2023-07-31T00:54:09;7.60;;;6.80;;
28910;SDS011;16028;42.642;23.310;2023-07-31T00:56:37;7.47;;;6.70;;
28910;SDS011;16028;42.642;23.310;2023-07-31T00:59:04;9.25;;;7.82;;
28910;SDS011;16028;42.642;23.310;2023-07-31T01:01:32;12.20;;;8.00;;
28910;SDS011;16028;42.642;23.310;2023-07-31T01:03:59;11.25;;;8.68;;
28910;SDS011;16028;42.642;23.310;2023-07-31T01:06:28;10.48;;;9.48;;
28910;SDS011;16028;42.642;23.310;2023-07-31T01:09:03;11.80;;;10.55;;
28910;SDS011;16028;42.642;23.310;2023-07-31T01:11:34;12.30;;;11.00;;
28910;SDS011;16028;42.642;23.310;2023-07-31T01:14:04;13.35;;;11.65;;
28910;SDS011;16028;42.642;23.310;2023-07-31T01:16:33;15.68;;;14.07;;
28910;SDS011;16028;42.642;23.310;2023-07-31T01:19:00;16.40;;;14.75;;
28910;SDS011;16028;42.642;23.310;2023-07-31T01:21:37;18.98;;;16.52;;
28910;SDS011;16028;42.642;23.310;2023-07-31T01:24:28;18.73;;;16.83;;
28910;SDS011;16028;42.642;23.310;2023-07-31T01:27:04;20.67;;;18.48;;
28910;SDS011;16028;42.642;23.310;2023-07-31T01:29:38;20.15;;;17.67;;
28910;SDS011;16028;42.642;23.310;2023-07-31T01:32:09;21.13;;;18.92;;
28910;SDS011;16028;42.642;23.310;2023-07-31T01:34:38;21.42;;;19.17;;
28910;SDS011;16028;42.642;23.310;2023-07-31T01:37:06;23.42;;;20.80;;
28910;SDS011;16028;42.642;23.310;2023-07-31T01:39:33;25.08;;;21.15;;
28910;SDS011;16028;42.642;23.310;2023-07-31T01:42:00;23.88;;;21.38;;
28910;SDS011;16028;42.642;23.310;2023-07-31T01:44:28;24.15;;;21.58;;
28910;SDS011;16028;42.642;23.310;2023-07-31T01:46:55;26.00;;;23.23;;
28910;SDS011;16028;42.642;23.310;2023-07-31T01:49:24;27.60;;;24.70;;
28910;SDS011;16028;42.642;23.310;2023-07-31T01:51:51;27.75;;;24.85;;
28910;SDS011;16028;42.642;23.310;2023-07-31T01:54:18;27.65;;;24.63;;
28910;SDS011;16028;42.642;23.310;2023-07-31T01:56:44;27.67;;;24.67;;
28910;SDS011;16028;42.642;23.310;2023-07-31T01:59:11;26.05;;;23.27;;
28910;SDS011;16028;42.642;23.310;2023-07-31T02:01:42;29.55;;;25.95;;
28910;SDS011;16028;42.642;23.310;2023-07-31T02:04:09;32.00;;;26.30;;
28910;SDS011;16028;42.642;23.310;2023-07-31T02:06:36;28.23;;;25.27;;
28910;SDS011;16028;42.642;23.310;2023-07-31T02:09:04;28.35;;;25.20;;
28910;SDS011;16028;42.642;23.310;2023-07-31T02:11:32;31.27;;;27.20;;
28910;SDS011;16028;42.642;23.310;2023-07-31T02:14:02;28.55;;;25.00;;
28910;SDS011;16028;42.642;23.310;2023-07-31T02:16:29;30.92;;;27.73;;
28910;SDS011;16028;42.642;23.310;2023-07-31T02:18:57;30.50;;;25.80;;
28910;SDS011;16028;42.642;23.310;2023-07-31T02:21:24;28.45;;;24.50;;
28910;SDS011;16028;42.642;23.310;2023-07-31T02:23:51;29.40;;;25.85;;
28910;SDS011;16028;42.642;23.310;2023-07-31T02:26:18;28.50;;;25.30;;
28910;SDS011;16028;42.642;23.310;2023-07-31T02:28:44;28.15;;;25.15;;
28910;SDS011;16028;42.642;23.310;2023-07-31T02:31:11;27.55;;;24.27;;
28910;SDS011;16028;42.642;23.310;2023-07-31T02:33:38;27.85;;;23.52;;
28910;SDS011;16028;42.642;23.310;2023-07-31T02:36:06;27.15;;;24.25;;
28910;SDS011;16028;42.642;23.310;2023-07-31T02:38:33;28.05;;;25.10;;
28910;SDS011;16028;42.642;23.310;2023-07-31T02:41:00;25.55;;;22.85;;
28910;SDS011;16028;42.642;23.310;2023-07-31T02:43:27;25.25;;;22.48;;
28910;SDS011;16028;42.642;23.310;2023-07-31T02:45:53;26.85;;;23.95;;
28910;SDS011;16028;42.642;23.310;2023-07-31T02:48:20;28.80;;;25.67;;
28910;SDS011;16028;42.642;23.310;2023-07-31T02:50:47;27.42;;;24.50;;
28910;SDS011;16028;42.642;23.310;2023-07-31T02:53:16;28.67;;;25.02;;
28910;SDS011;16028;42.642;23.310;2023-07-31T02:55:42;27.13;;;24.33;;
28910;SDS011;16028;42.642;23.310;2023-07-31T02:58:09;26.75;;;23.95;;
28910;SDS011;16028;42.642;23.310;2023-07-31T03:00:36;28.48;;;25.40;;
28910;SDS011;16028;42.642;23.310;2023-07-31T03:03:10;26.48;;;23.67;;
28910;SDS011;16028;42.642;23.310;2023-07-31T03:05:37;28.23;;;25.30;;
28910;SDS011;16028;42.642;23.310;2023-07-31T03:08:04;27.58;;;24.58;;
28910;SDS011;16028;42.642;23.310;2023-07-31T03:10:32;27.55;;;24.63;;
28910;SDS011;16028;42.642;23.310;2023-07-31T03:12:59;28.40;;;24.58;;
28910;SDS011;16028;42.642;23.310;2023-07-31T03:15:26;27.40;;;24.50;;
28910;SDS011;16028;42.642;23.310;2023-07-31T03:17:53;27.08;;;24.20;;
28910;SDS011;16028;42.642;23.310;2023-07-31T03:20:20;28.75;;;25.67;;
28910;SDS011;16028;42.642;23.310;2023-07-31T03:22:46;27.95;;;24.45;;
28910;SDS011;16028;42.642;23.310;2023-07-31T03:25:13;29.10;;;25.67;;
28910;SDS011;16028;42.642;23.310;2023-07-31T03:27:42;25.58;;;22.15;;
28910;SDS011;16028;42.642;23.310;2023-07-31T03:30:08;28.23;;;25.20;;
28910;SDS011;16028;42.642;23.310;2023-07-31T03:32:36;28.73;;;25.55;;
28910;SDS011;16028;42.642;23.310;2023-07-31T03:35:03;28.77;;;25.70;;
28910;SDS011;16028;42.642;23.310;2023-07-31T03:37:30;29.23;;;26.00;;
28910;SDS011;16028;42.642;23.310;2023-07-31T03:39:57;28.02;;;24.85;;
28910;SDS011;16028;42.642;23.310;2023-07-31T03:42:24;29.10;;;25.48;;
28910;SDS011;16028;42.642;23.310;2023-07-31T03:44:52;32.30;;;27.10;;
28910;SDS011;16028;42.642;23.310;2023-07-31T03:47:19;30.50;;;26.73;;
28910;SDS011;16028;42.642;23.310;2023-07-31T03:49:45;31.30;;;27.25;;
28910;SDS011;16028;42.642;23.310;2023-07-31T03:52:15;30.63;;;26.25;;
28910;SDS011;16028;42.642;23.310;2023-07-31T03:54:42;30.80;;;25.85;;
28910;SDS011;16028;42.642;23.310;2023-07-31T03:57:09;31.33;;;25.52;;
28910;SDS011;16028;42.642;23.310;2023-07-31T03:59:36;30.23;;;26.20;;
28910;SDS011;16028;42.642;23.310;2023-07-31T04:02:05;30.48;;;25.58;;
28910;SDS011;16028;42.642;23.310;2023-07-31T04:04:32;31.13;;;26.30;;
28910;SDS011;16028;42.642;23.310;2023-07-31T04:06:59;30.83;;;25.75;;
28910;SDS011;16028;42.642;23.310;2023-07-31T04:09:26;29.70;;;26.27;;
28910;SDS011;16028;42.642;23.310;2023-07-31T04:11:52;32.28;;;27.55;;
28910;SDS011;16028;42.642;23.310;2023-07-31T04:14:19;29.33;;;24.85;;
28910;SDS011;16028;42.642;23.310;2023-07-31T04:16:46;30.67;;;25.63;;
28910;SDS011;16028;42.642;23.310;2023-07-31T04:19:14;30.70;;;25.88;;
28910;SDS011;16028;42.642;23.310;2023-07-31T04:21:41;28.52;;;23.67;;
28910;SDS011;16028;42.642;23.310;2023-07-31T04:24:08;29.67;;;25.48;;
28910;SDS011;16028;42.642;23.310;2023-07-31T04:26:35;30.75;;;26.40;;
28910;SDS011;16028;42.642;23.310;2023-07-31T04:29:02;26.98;;;23.33;;
28910;SDS011;16028;42.642;23.310;2023-07-31T04:31:29;31.73;;;24.73;;
28910;SDS011;16028;42.642;23.310;2023-07-31T04:33:56;27.88;;;23.67;;
28910;SDS011;16028;42.642;23.310;2023-07-31T04:36:30;28.17;;;23.63;;
28910;SDS011;16028;42.642;23.310;2023-07-31T04:38:59;22.48;;;19.92;;
28910;SDS011;16028;42.642;23.310;2023-07-31T04:41:26;25.73;;;21.23;;
28910;SDS011;16028;42.642;23.310;2023-07-31T04:43:53;23.33;;;20.55;;
28910;SDS011;16028;42.642;23.310;2023-07-31T04:46:20;24.60;;;19.45;;
28910;SDS011;16028;42.642;23.310;2023-07-31T04:48:47;21.98;;;19.30;;
28910;SDS011;16028;42.642;23.310;2023-07-31T04:51:13;24.38;;;20.92;;
28910;SDS011;16028;42.642;23.310;2023-07-31T04:53:42;23.08;;;18.80;;
28910;SDS011;16028;42.642;23.310;2023-07-31T04:56:08;21.85;;;17.98;;
28910;SDS011;16028;42.642;23.310;2023-07-31T04:58:35;22.00;;;19.63;;
28910;SDS011;16028;42.642;23.310;2023-07-31T05:01:02;22.88;;;20.17;;
28910;SDS011;16028;42.642;23.310;2023-07-31T05:03:29;22.77;;;19.50;;
28910;SDS011;16028;42.642;23.310;2023-07-31T05:05:55;22.17;;;19.73;;
28910;SDS011;16028;42.642;23.310;2023-07-31T05:08:22;22.00;;;19.30;;
28910;SDS011;16028;42.642;23.310;2023-07-31T05:10:51;20.85;;;18.52;;
28910;SDS011;16028;42.642;23.310;2023-07-31T05:13:18;19.50;;;17.50;;
28910;SDS011;16028;42.642;23.310;2023-07-31T05:15:45;24.95;;;19.00;;
28910;SDS011;16028;42.642;23.310;2023-07-31T05:18:11;20.30;;;18.20;;
28910;SDS011;16028;42.642;23.310;2023-07-31T05:20:38;17.13;;;15.32;;
28910;SDS011;16028;42.642;23.310;2023-07-31T05:23:05;18.02;;;16.15;;
28910;SDS011;16028;42.642;23.310;2023-07-31T05:25:32;19.42;;;16.00;;
28910;SDS011;16028;42.642;23.310;2023-07-31T05:28:00;18.17;;;16.27;;
28910;SDS011;16028;42.642;23.310;2023-07-31T05:30:29;21.27;;;16.30;;
28910;SDS011;16028;42.642;23.310;2023-07-31T05:32:56;18.00;;;16.13;;
28910;SDS011;16028;42.642;23.310;2023-07-31T05:35:23;15.77;;;14.18;;
28910;SDS011;16028;42.642;23.310;2023-07-31T05:37:57;16.35;;;14.65;;
28910;SDS011;16028;42.642;23.310;2023-07-31T05:40:43;16.08;;;14.40;;
28910;SDS011;16028;42.642;23.310;2023-07-31T05:43:11;15.85;;;14.35;;
28910;SDS011;16028;42.642;23.310;2023-07-31T05:45:38;15.55;;;13.93;;
28910;SDS011;16028;42.642;23.310;2023-07-31T05:48:05;18.00;;;14.32;;
28910;SDS011;16028;42.642;23.310;2023-07-31T05:50:32;16.10;;;14.43;;
28910;SDS011;16028;42.642;23.310;2023-07-31T05:52:58;18.23;;;15.43;;
28910;SDS011;16028;42.642;23.310;2023-07-31T05:55:25;14.88;;;13.27;;
28910;SDS011;16028;42.642;23.310;2023-07-31T05:57:53;13.40;;;12.07;;
28910;SDS011;16028;42.642;23.310;2023-07-31T06:00:21;13.43;;;11.63;;
28910;SDS011;16028;42.642;23.310;2023-07-31T06:02:48;12.25;;;10.45;;
28910;SDS011;16028;42.642;23.310;2023-07-31T06:05:15;12.50;;;11.20;;
28910;SDS011;16028;42.642;23.310;2023-07-31T06:07:44;11.45;;;10.30;;
28910;SDS011;16028;42.642;23.310;2023-07-31T06:10:11;11.48;;;10.02;;
28910;SDS011;16028;42.642;23.310;2023-07-31T06:12:38;11.02;;;9.77;;
28910;SDS011;16028;42.642;23.310;2023-07-31T06:15:05;11.85;;;10.32;;
28910;SDS011;16028;42.642;23.310;2023-07-31T06:17:34;9.93;;;8.50;;
28910;SDS011;16028;42.642;23.310;2023-07-31T06:20:01;8.90;;;8.10;;
28910;SDS011;16028;42.642;23.310;2023-07-31T06:22:30;9.07;;;8.18;;
28910;SDS011;16028;42.642;23.310;2023-07-31T06:24:57;7.53;;;6.72;;
28910;SDS011;16028;42.642;23.310;2023-07-31T06:27:23;8.48;;;7.50;;
28910;SDS011;16028;42.642;23.310;2023-07-31T06:29:53;7.53;;;6.47;;
28910;SDS011;16028;42.642;23.310;2023-07-31T06:32:22;7.07;;;6.38;;
28910;SDS011;16028;42.642;23.310;2023-07-31T06:34:50;7.95;;;5.57;;
28910;SDS011;16028;42.642;23.310;2023-07-31T06:37:17;5.95;;;5.35;;
28910;SDS011;16028;42.642;23.310;2023-07-31T06:39:44;5.55;;;4.97;;
28910;SDS011;16028;42.642;23.310;2023-07-31T06:42:11;5.38;;;4.88;;
28910;SDS011;16028;42.642;23.310;2023-07-31T06:44:37;4.68;;;4.28;;
28910;SDS011;16028;42.642;23.310;2023-07-31T06:47:04;8.18;;;6.10;;
28910;SDS011;16028;42.642;23.310;2023-07-31T06:49:31;8.45;;;5.18;;
28910;SDS011;16028;42.642;23.310;2023-07-31T06:52:00;4.82;;;4.32;;
28910;SDS011;16028;42.642;23.310;2023-07-31T06:54:26;6.00;;;5.40;;
28910;SDS011;16028;42.642;23.310;2023-07-31T06:56:53;6.65;;;5.70;;
28910;SDS011;16028;42.642;23.310;2023-07-31T06:59:20;7.95;;;4.85;;
28910;SDS011;16028;42.642;23.310;2023-07-31T07:01:47;5.93;;;4.70;;
28910;SDS011;16028;42.642;23.310;2023-07-31T07:04:14;5.20;;;4.80;;
28910;SDS011;16028;42.642;23.310;2023-07-31T07:06:40;7.03;;;4.70;;
28910;SDS011;16028;42.642;23.310;2023-07-31T07:09:08;10.57;;;5.38;;
28910;SDS011;16028;42.642;23.310;2023-07-31T07:11:35;5.60;;;4.18;;
28910;SDS011;16028;42.642;23.310;2023-07-31T07:14:03;4.95;;;4.13;;
28910;SDS011;16028;42.642;23.310;2023-07-31T07:16:30;5.22;;;4.28;;
28910;SDS011;16028;42.642;23.310;2023-07-31T07:18:57;4.70;;;4.20;;
28910;SDS011;16028;42.642;23.310;2023-07-31T07:21:24;3.95;;;3.60;;
28910;SDS011;16028;42.642;23.310;2023-07-31T07:23:50;3.65;;;3.10;;
28910;SDS011;16028;42.642;23.310;2023-07-31T07:26:19;5.25;;;4.18;;
28910;SDS011;16028;42.642;23.310;2023-07-31T07:28:46;3.75;;;3.40;;
28910;SDS011;16028;42.642;23.310;2023-07-31T07:31:16;4.68;;;3.70;;
28910;SDS011;16028;42.642;23.310;2023-07-31T07:33:43;3.55;;;3.15;;
28910;SDS011;16028;42.642;23.310;2023-07-31T07:36:09;4.20;;;3.28;;
28910;SDS011;16028;42.642;23.310;2023-07-31T07:38:37;7.53;;;3.10;;
28910;SDS011;16028;42.642;23.310;2023-07-31T07:41:04;4.10;;;3.70;;
28910;SDS011;16028;42.642;23.310;2023-07-31T07:47:12;5.18;;;3.30;;
28910;SDS011;16028;42.642;23.310;2023-07-31T07:50:02;3.13;;;2.92;;
28910;SDS011;16028;42.642;23.310;2023-07-31T07:53:07;3.97;;;3.33;;
28910;SDS011;16028;42.642;23.310;2023-07-31T07:55:34;5.10;;;3.20;;
28910;SDS011;16028;42.642;23.310;2023-07-31T07:58:01;4.20;;;3.80;;
28910;SDS011;16028;42.642;23.310;2023-07-31T08:00:30;3.95;;;3.38;;
28910;SDS011;16028;42.642;23.310;2023-07-31T08:02:58;3.60;;;3.30;;
28910;SDS011;16028;42.642;23.310;2023-07-31T08:05:25;3.67;;;3.28;;
28910;SDS011;16028;42.642;23.310;2023-07-31T08:07:52;3.78;;;3.35;;
28910;SDS011;16028;42.642;23.310;2023-07-31T08:10:19;4.85;;;3.58;;
28910;SDS011;16028;42.642;23.310;2023-07-31T08:12:45;4.50;;;3.88;;
28910;SDS011;16028;42.642;23.310;2023-07-31T08:15:12;3.10;;;2.90;;
28910;SDS011;16028;42.642;23.310;2023-07-31T08:17:40;4.35;;;3.42;;
28910;SDS011;16028;42.642;23.310;2023-07-31T08:20:07;5.65;;;3.35;;
28910;SDS011;16028;42.642;23.310;2023-07-31T08:22:35;5.57;;;3.78;;
28910;SDS011;16028;42.642;23.310;2023-07-31T08:25:02;4.85;;;3.42;;
28910;SDS011;16028;42.642;23.310;2023-07-31T08:27:31;3.42;;;3.13;;
28910;SDS011;16028;42.642;23.310;2023-07-31T08:29:57;3.95;;;3.42;;
28910;SDS011;16028;42.642;23.310;2023-07-31T08:32:24;4.80;;;3.45;;
28910;SDS011;16028;42.642;23.310;2023-07-31T08:34:52;5.53;;;3.80;;
28910;SDS011;16028;42.642;23.310;2023-07-31T08:37:19;4.43;;;3.20;;
28910;SDS011;16028;42.642;23.310;2023-07-31T08:39:46;4.15;;;3.67;;
28910;SDS011;16028;42.642;23.310;2023-07-31T08:42:13;3.50;;;3.00;;
28910;SDS011;16028;42.642;23.310;2023-07-31T08:44:39;4.03;;;3.33;;
28910;SDS011;16028;42.642;23.310;2023-07-31T08:47:07;3.20;;;2.90;;
28910;SDS011;16028;42.642;23.310;2023-07-31T08:49:34;4.88;;;3.13;;
28910;SDS011;16028;42.642;23.310;2023-07-31T08:52:05;3.58;;;3.22;;
28910;SDS011;16028;42.642;23.310;2023-07-31T08:54:32;3.40;;;3.10;;
28910;SDS011;16028;42.642;23.310;2023-07-31T08:56:59;4.30;;;3.60;;
28910;SDS011;16028;42.642;23.310;2023-07-31T08:59:27;4.53;;;3.30;;
28910;SDS011;16028;42.642;23.310;2023-07-31T09:01:57;3.97;;;3.38;;
28910;SDS011;16028;42.642;23.310;2023-07-31T09:04:29;3.58;;;3.28;;
28910;SDS011;16028;42.642;23.310;2023-07-31T09:06:59;3.08;;;2.88;;
28910;SDS011;16028;42.642;23.310;2023-07-31T09:09:29;3.20;;;2.90;;
28910;SDS011;16028;42.642;23.310;2023-07-31T09:11:57;4.18;;;3.80;;
28910;SDS011;16028;42.642;23.310;2023-07-31T09:14:24;4.38;;;3.00;;
28910;SDS011;16028;42.642;23.310;2023-07-31T09:16:52;3.83;;;2.85;;
28910;SDS011;16028;42.642;23.310;2023-07-31T09:19:26;3.28;;;2.97;;
28910;SDS011;16028;42.642;23.310;2023-07-31T09:21:54;3.55;;;3.00;;
28910;SDS011;16028;42.642;23.310;2023-07-31T09:24:27;5.28;;;3.33;;
28910;SDS011;16028;42.642;23.310;2023-07-31T09:26:57;3.67;;;3.30;;
28910;SDS011;16028;42.642;23.310;2023-07-31T09:29:25;4.32;;;3.20;;
28910;SDS011;16028;42.642;23.310;2023-07-31T09:31:53;3.50;;;3.20;;
28910;SDS011;16028;42.642;23.310;2023-07-31T09:34:20;3.63;;;3.22;;
28910;SDS011;16028;42.642;23.310;2023-07-31T09:36:54;4.88;;;3.10;;
28910;SDS011;16028;42.642;23.310;2023-07-31T09:39:21;3.10;;;2.78;;
28910;SDS011;16028;42.642;23.310;2023-07-31T09:41:53;3.90;;;3.47;;
28910;SDS011;16028;42.642;23.310;2023-07-31T09:44:22;5.68;;;3.25;;
28910;SDS011;16028;42.642;23.310;2023-07-31T09:47:04;4.15;;;3.50;;
28910;SDS011;16028;42.642;23.310;2023-07-31T09:49:31;5.00;;;4.50;;
28910;SDS011;16028;42.642;23.310;2023-07-31T09:51:58;4.03;;;3.50;;
28910;SDS011;16028;42.642;23.310;2023-07-31T09:54:25;3.60;;;3.30;;
28910;SDS011;16028;42.642;23.310;2023-07-31T09:56:52;7.13;;;4.28;;
28910;SDS011;16028;42.642;23.310;2023-07-31T09:59:20;3.85;;;3.25;;
28910;SDS011;16028;42.642;23.310;2023-07-31T10:01:49;4.30;;;3.47;;
28910;SDS011;16028;42.642;23.310;2023-07-31T10:04:16;3.92;;;3.45;;
28910;SDS011;16028;42.642;23.310;2023-07-31T10:06:50;3.38;;;3.08;;
28910;SDS011;16028;42.642;23.310;2023-07-31T10:09:20;4.05;;;3.22;;
28910;SDS011;16028;42.642;23.310;2023-07-31T10:11:50;3.95;;;3.45;;
28910;SDS011;16028;42.642;23.310;2023-07-31T10:14:23;3.50;;;3.20;;
28910;SDS011;16028;42.642;23.310;2023-07-31T10:16:52;3.25;;;2.72;;
28910;SDS011;16028;42.642;23.310;2023-07-31T10:19:19;3.33;;;3.03;;
28910;SDS011;16028;42.642;23.310;2023-07-31T10:21:47;7.10;;;3.63;;
28910;SDS011;16028;42.642;23.310;2023-07-31T10:24:15;2.70;;;2.50;;
28910;SDS011;16028;42.642;23.310;2023-07-31T10:26:42;4.07;;;2.53;;
28910;SDS011;16028;42.642;23.310;2023-07-31T10:29:13;4.00;;;3.10;;
28910;SDS011;16028;42.642;23.310;2023-07-31T10:31:43;3.72;;;2.72;;
28910;SDS011;16028;42.642;23.310;2023-07-31T10:34:12;4.28;;;2.28;;
28910;SDS011;16028;42.642;23.310;2023-07-31T10:36:39;3.83;;;2.63;;
28910;SDS011;16028;42.642;23.310;2023-07-31T10:39:06;2.67;;;2.47;;
28910;SDS011;16028;42.642;23.310;2023-07-31T10:42:11;2.40;;;2.20;;
28910;SDS011;16028;42.642;23.310;2023-07-31T10:44:38;2.95;;;2.65;;
28910;SDS011;16028;42.642;23.310;2023-07-31T10:47:15;3.47;;;2.55;;
28910;SDS011;16028;42.642;23.310;2023-07-31T10:49:44;3.17;;;2.53;;
28910;SDS011;16028;42.642;23.310;2023-07-31T10:52:12;5.32;;;2.53;;
28910;SDS011;16028;42.642;23.310;2023-07-31T10:54:39;3.70;;;2.33;;
28910;SDS011;16028;42.642;23.310;2023-07-31T10:57:14;3.85;;;2.65;;
28910;SDS011;16028;42.642;23.310;2023-07-31T10:59:46;2.70;;;2.50;;
28910;SDS011;16028;42.642;23.310;2023-07-31T11:02:24;3.35;;;2.38;;
28910;SDS011;16028;42.642;23.310;2023-07-31T11:05:06;3.13;;;2.30;;
28910;SDS011;16028;42.642;23.310;2023-07-31T11:07:46;3.60;;;2.40;;
28910;SDS011;16028;42.642;23.310;2023-07-31T11:10:16;3.08;;;2.67;;
28910;SDS011;16028;42.642;23.310;2023-07-31T11:12:44;2.60;;;2.40;;
28910;SDS011;16028;42.642;23.310;2023-07-31T11:15:11;2.28;;;2.08;;
28910;SDS011;16028;42.642;23.310;2023-07-31T11:17:40;2.63;;;2.42;;
28910;SDS011;16028;42.642;23.310;2023-07-31T11:20:07;2.80;;;2.60;;
28910;SDS011;16028;42.642;23.310;2023-07-31T11:22:34;2.83;;;2.00;;
28910;SDS011;16028;42.642;23.310;2023-07-31T11:25:03;2.75;;;2.17;;
28910;SDS011;16028;42.642;23.310;2023-07-31T11:27:30;2.30;;;2.10;;
28910;SDS011;16028;42.642;23.310;2023-07-31T11:30:05;2.55;;;2.35;;
28910;SDS011;16028;42.642;23.310;2023-07-31T11:32:35;2.40;;;2.20;;
28910;SDS011;16028;42.642;23.310;2023-07-31T11:35:04;2.85;;;2.13;;
28910;SDS011;16028;42.642;23.310;2023-07-31T11:37:39;3.20;;;2.22;;
28910;SDS011;16028;42.642;23.310;2023-07-31T11:40:07;2.78;;;2.50;;
28910;SDS011;16028;42.642;23.310;2023-07-31T11:42:35;2.85;;;2.53;;
28910;SDS011;16028;42.642;23.310;2023-07-31T11:45:02;4.10;;;2.70;;
28910;SDS011;16028;42.642;23.310;2023-07-31T11:47:29;4.85;;;3.45;;
28910;SDS011;16028;42.642;23.310;2023-07-31T11:49:59;6.85;;;3.03;;
28910;SDS011;16028;42.642;23.310;2023-07-31T11:52:27;4.32;;;3.10;;
28910;SDS011;16028;42.642;23.310;2023-07-31T11:54:56;5.68;;;2.80;;
28910;SDS011;16028;42.642;23.310;2023-07-31T11:57:24;3.58;;;3.10;;
28910;SDS011;16028;42.642;23.310;2023-07-31T11:59:52;5.40;;;3.58;;
28910;SDS011;16028;42.642;23.310;2023-07-31T12:02:19;2.83;;;2.63;;
28910;SDS011;16028;42.642;23.310;2023-07-31T12:04:46;3.30;;;3.00;;
28910;SDS011;16028;42.642;23.310;2023-07-31T12:07:14;3.72;;;3.08;;
28910;SDS011;16028;42.642;23.310;2023-07-31T12:09:51;4.13;;;3.05;;
28910;SDS011;16028;42.642;23.310;2023-07-31T12:12:19;5.07;;;3.70;;
28910;SDS011;16028;42.642;23.310;2023-07-31T12:14:47;6.75;;;3.95;;
28910;SDS011;16028;42.642;23.310;2023-07-31T12:17:16;3.83;;;3.42;;
28910;SDS011;16028;42.642;23.310;2023-07-31T12:19:45;5.45;;;3.60;;
28910;SDS011;16028;42.642;23.310;2023-07-31T12:22:12;4.50;;;3.95;;
28910;SDS011;16028;42.642;23.310;2023-07-31T12:24:39;4.47;;;3.83;;
28910;SDS011;16028;42.642;23.310;2023-07-31T12:27:11;7.50;;;6.80;;
28910;SDS011;16028;42.642;23.310;2023-07-31T12:29:40;4.80;;;4.40;;
28910;SDS011;16028;42.642;23.310;2023-07-31T12:32:22;5.10;;;4.70;;
28910;SDS011;16028;42.642;23.310;2023-07-31T12:34:50;6.18;;;5.57;;
28910;SDS011;16028;42.642;23.310;2023-07-31T12:37:17;6.47;;;5.82;;
28910;SDS011;16028;42.642;23.310;2023-07-31T12:39:44;6.75;;;6.05;;
28910;SDS011;16028;42.642;23.310;2023-07-31T12:42:12;6.70;;;6.10;;
28910;SDS011;16028;42.642;23.310;2023-07-31T12:44:38;6.57;;;5.93;;
28910;SDS011;16028;42.642;23.310;2023-07-31T12:47:05;9.60;;;5.97;;
28910;SDS011;16028;42.642;23.310;2023-07-31T12:49:32;6.38;;;5.78;;
28910;SDS011;16028;42.642;23.310;2023-07-31T12:51:59;5.80;;;5.30;;
28910;SDS011;16028;42.642;23.310;2023-07-31T12:54:25;8.02;;;5.65;;
28910;SDS011;16028;42.642;23.310;2023-07-31T12:56:52;5.78;;;5.18;;
28910;SDS011;16028;42.642;23.310;2023-07-31T12:59:20;6.32;;;5.43;;
28910;SDS011;16028;42.642;23.310;2023-07-31T13:01:47;6.50;;;5.90;;
28910;SDS011;16028;42.642;23.310;2023-07-31T13:04:14;7.85;;;6.43;;
28910;SDS011;16028;42.642;23.310;2023-07-31T13:06:40;6.75;;;6.05;;
28910;SDS011;16028;42.642;23.310;2023-07-31T13:09:07;6.63;;;5.68;;
28910;SDS011;16028;42.642;23.310;2023-07-31T13:11:34;11.32;;;5.97;;
28910;SDS011;16028;42.642;23.310;2023-07-31T13:14:01;6.93;;;6.32;;
28910;SDS011;16028;42.642;23.310;2023-07-31T13:16:29;7.13;;;6.53;;
28910;SDS011;16028;42.642;23.310;2023-07-31T13:18:56;7.07;;;6.38;;
28910;SDS011;16028;42.642;23.310;2023-07-31T13:21:22;7.25;;;6.55;;
28910;SDS011;16028;42.642;23.310;2023-07-31T13:23:49;8.43;;;6.28;;
28910;SDS011;16028;42.642;23.310;2023-07-31T13:26:16;7.00;;;6.32;;
28910;SDS011;16028;42.642;23.310;2023-07-31T13:28:43;6.97;;;6.28;;
28910;SDS011;16028;42.642;23.310;2023-07-31T13:31:09;7.18;;;6.07;;
28910;SDS011;16028;42.642;23.310;2023-07-31T13:33:38;6.35;;;5.85;;
28910;SDS011;16028;42.642;23.310;2023-07-31T13:36:04;5.88;;;5.28;;
28910;SDS011;16028;42.642;23.310;2023-07-31T13:38:31;5.38;;;4.88;;
28910;SDS011;16028;42.642;23.310;2023-07-31T13:40:58;7.63;;;5.30;;
28910;SDS011;16028;42.642;23.310;2023-07-31T13:43:25;5.03;;;4.53;;
28910;SDS011;16028;42.642;23.310;2023-07-31T13:45:51;6.28;;;4.60;;
28910;SDS011;16028;42.642;23.310;2023-07-31T13:48:18;5.00;;;4.60;;
28910;SDS011;16028;42.642;23.310;2023-07-31T13:50:46;5.90;;;4.60;;
28910;SDS011;16028;42.642;23.310;2023-07-31T13:53:13;6.10;;;4.78;;
28910;SDS011;16028;42.642;23.310;2023-07-31T13:55:40;5.80;;;5.05;;
28910;SDS011;16028;42.642;23.310;2023-07-31T13:58:12;8.27;;;5.78;;
28910;SDS011;16028;42.642;23.310;2023-07-31T14:00:39;7.68;;;4.95;;
28910;SDS011;16028;42.642;23.310;2023-07-31T14:03:08;5.95;;;4.60;;
28910;SDS011;16028;42.642;23.310;2023-07-31T14:05:35;6.38;;;4.50;;
28910;SDS011;16028;42.642;23.310;2023-07-31T14:08:03;5.43;;;4.93;;
28910;SDS011;16028;42.642;23.310;2023-07-31T14:10:30;5.05;;;4.55;;
28910;SDS011;16028;42.642;23.310;2023-07-31T14:12:56;5.00;;;4.30;;
28910;SDS011;16028;42.642;23.310;2023-07-31T14:15:23;5.28;;;4.82;;
28910;SDS011;16028;42.642;23.310;2023-07-31T14:17:50;5.75;;;4.90;;
28910;SDS011;16028;42.642;23.310;2023-07-31T14:20:17;6.07;;;5.20;;
28910;SDS011;16028;42.642;23.310;2023-07-31T14:22:44;9.48;;;4.70;;
28910;SDS011;16028;42.642;23.310;2023-07-31T14:25:12;5.07;;;4.60;;
28910;SDS011;16028;42.642;23.310;2023-07-31T14:27:38;5.25;;;4.78;;
28910;SDS011;16028;42.642;23.310;2023-07-31T14:30:06;5.35;;;4.85;;
28910;SDS011;16028;42.642;23.310;2023-07-31T14:32:33;4.28;;;3.92;;
28910;SDS011;16028;42.642;23.310;2023-07-31T14:35:02;7.35;;;4.43;;